Time;durP1;ratioP1;P1;durP2;ratioP2;P2;SDS_P1;SDS_P2;PMS_P1;PMS_P2;Temp;Humidity;BMP_temperature;BMP_pressure;BME280_temperature;BME280_humidity;BME280_pressure;Samples;Min_cycle;Max_cycle;Signal;HPM_P1;HPM_P2
2022/09/14 00:00:55;;;;;;;1.90;0.30;;;13.60;99.90;;;;;;5053250;28;20408;-85
2022/09/14 00:03:20;;;;;;;2.57;0.20;;;13.50;99.90;;;;;;5052534;28;20486;-86
2022/09/14 00:05:46;;;;;;;1.43;0.30;;;13.40;99.90;;;;;;5053046;28;20172;-86
2022/09/14 00:08:12;;;;;;;1.03;0.30;;;13.40;99.90;;;;;;5052934;28;20169;-86
2022/09/14 00:10:42;;;;;;;2.13;0.40;;;13.40;99.90;;;;;;5051818;28;20180;-83
2022/09/14 00:13:09;;;;;;;2.67;0.30;;;13.30;99.90;;;;;;5052916;28;20520;-86
2022/09/14 00:15:39;;;;;;;2.37;0.80;;;13.30;99.90;;;;;;5053106;28;20499;-86
2022/09/14 00:18:14;;;;;;;1.60;0.30;;;13.20;99.90;;;;;;5052796;28;20785;-85
2022/09/14 00:20:40;;;;;;;0.80;0.20;;;13.20;99.90;;;;;;5053064;28;20429;-84
2022/09/14 00:23:05;;;;;;;2.33;0.30;;;13.20;99.90;;;;;;5052558;28;20561;-84
2022/09/14 00:25:37;;;;;;;1.53;0.40;;;13.20;99.90;;;;;;5052952;28;20166;-85
2022/09/14 00:28:02;;;;;;;1.67;0.20;;;13.10;99.90;;;;;;5052918;28;20202;-86
2022/09/14 00:30:28;;;;;;;0.40;0.10;;;13.00;99.90;;;;;;5052796;28;20451;-83
2022/09/14 00:32:53;;;;;;;0.93;0.20;;;13.00;99.90;;;;;;5052850;28;20162;-84
2022/09/14 00:35:19;;;;;;;3.67;0.30;;;12.90;99.90;;;;;;5052737;28;20166;-84
2022/09/14 00:37:47;;;;;;;0.40;0.20;;;12.80;99.90;;;;;;5052447;28;20610;-85
2022/09/14 00:40:13;;;;;;;0.63;0.40;;;12.80;99.90;;;;;;5052849;28;20192;-85
2022/09/14 00:42:39;;;;;;;6.67;0.27;;;12.70;99.90;;;;;;5052595;28;20967;-84
2022/09/14 00:45:15;;;;;;;1.03;0.20;;;12.60;99.90;;;;;;5052780;28;20172;-84
2022/09/14 00:47:42;;;;;;;2.07;0.20;;;12.50;99.90;;;;;;5052855;28;20203;-86
2022/09/14 00:50:08;;;;;;;1.10;0.27;;;12.50;99.90;;;;;;5052838;28;20413;-84
2022/09/14 00:52:36;;;;;;;1.37;0.20;;;12.40;99.90;;;;;;5052445;28;20428;-85
2022/09/14 00:55:07;;;;;;;1.37;0.30;;;12.40;99.90;;;;;;5052698;28;20419;-85
2022/09/14 00:57:37;;;;;;;1.60;0.37;;;12.40;99.90;;;;;;5052722;28;20413;-86
2022/09/14 01:00:06;;;;;;;1.60;0.20;;;12.30;99.90;;;;;;5052700;28;20400;-84
2022/09/14 01:02:32;;;;;;;4.30;0.33;;;12.30;99.90;;;;;;5050795;28;20463;-84
2022/09/14 01:04:58;;;;;;;2.40;0.97;;;12.30;99.90;;;;;;5052579;28;20818;-85
2022/09/14 01:07:58;;;;;;;1.10;0.23;;;12.40;99.90;;;;;;5051023;28;20178;-84
2022/09/14 01:10:57;;;;;;;2.20;0.20;;;12.40;99.90;;;;;;5052595;28;20227;-84
2022/09/14 01:13:50;;;;;;;2.60;0.77;;;12.40;99.90;;;;;;5051117;28;20463;-84
2022/09/14 01:16:25;;;;;;;2.20;0.77;;;12.40;99.90;;;;;;5052477;28;20426;-84
2022/09/14 01:18:59;;;;;;;2.00;0.20;;;12.40;99.90;;;;;;5052578;28;20428;-84
2022/09/14 01:21:31;;;;;;;1.83;0.40;;;12.40;99.90;;;;;;5051895;28;20463;-85
2022/09/14 01:24:21;;;;;;;2.30;0.30;;;12.40;99.90;;;;;;5052459;28;20417;-85
2022/09/14 01:27:16;;;;;;;0.70;0.20;;;12.40;99.90;;;;;;5052420;28;20421;-83
2022/09/14 01:29:48;;;;;;;2.83;0.43;;;12.50;99.90;;;;;;5052354;28;20413;-85
2022/09/14 01:32:20;;;;;;;1.43;0.30;;;12.40;99.90;;;;;;5054050;28;20422;-85
2022/09/14 01:35:06;;;;;;;1.80;0.30;;;12.40;99.90;;;;;;5055881;28;20407;-84
2022/09/14 01:37:47;;;;;;;3.43;0.30;;;12.40;99.90;;;;;;5055636;28;20400;-84
2022/09/14 01:40:22;;;;;;;1.13;0.30;;;12.30;99.90;;;;;;5055901;28;20428;-84
2022/09/14 01:42:53;;;;;;;1.20;0.30;;;12.30;99.90;;;;;;5055729;28;20555;-83
2022/09/14 01:45:24;;;;;;;3.40;0.30;;;12.30;99.90;;;;;;5054495;28;20409;-85
2022/09/14 01:48:06;;;;;;;0.40;0.20;;;12.20;99.90;;;;;;5055768;28;20433;-83
2022/09/14 01:50:46;;;;;;;1.47;0.20;;;12.20;99.90;;;;;;5055246;28;20424;-85
2022/09/14 01:53:36;;;;;;;0.70;0.37;;;12.20;99.90;;;;;;5054298;28;20404;-85
2022/09/14 01:56:07;;;;;;;1.60;0.30;;;12.20;99.90;;;;;;5055561;28;20407;-85
2022/09/14 01:58:58;;;;;;;1.50;0.20;;;12.20;99.90;;;;;;5055448;28;20457;-84
2022/09/14 02:01:32;;;;;;;2.17;0.57;;;12.20;99.90;;;;;;5055396;28;20402;-84
2022/09/14 02:04:03;;;;;;;3.73;0.40;;;12.20;99.90;;;;;;5054134;28;20427;-84
2022/09/14 02:06:36;;;;;;;3.50;0.57;;;12.20;99.90;;;;;;5055066;28;20493;-85
2022/09/14 02:09:04;;;;;;;2.83;0.20;;;12.20;99.90;;;;;;5055233;28;20471;-85
2022/09/14 02:11:29;;;;;;;3.23;0.40;;;12.10;99.90;;;;;;5055204;28;20415;-84
2022/09/14 02:13:55;;;;;;;1.60;0.20;;;12.20;99.90;;;;;;5055078;28;20815;-84
2022/09/14 02:16:22;;;;;;;0.80;0.30;;;12.20;99.90;;;;;;5053952;28;20182;-85
2022/09/14 02:18:48;;;;;;;2.23;0.30;;;12.30;99.90;;;;;;5055180;28;20186;-84
2022/09/14 02:21:17;;;;;;;2.53;0.30;;;12.20;99.90;;;;;;5054639;28;20409;-85
2022/09/14 02:23:43;;;;;;;3.77;0.30;;;12.10;99.90;;;;;;5055048;28;20414;-84
2022/09/14 02:26:09;;;;;;;1.27;0.40;;;12.20;99.90;;;;;;5054982;28;20422;-84
2022/09/14 02:28:35;;;;;;;0.97;0.20;;;12.20;99.90;;;;;;5055007;28;20195;-84
2022/09/14 02:31:19;;;;;;;3.07;0.37;;;12.10;99.90;;;;;;5054949;28;20418;-84
2022/09/14 02:33:56;;;;;;;2.33;0.27;;;12.10;99.90;;;;;;5053575;28;20179;-85
2022/09/14 02:36:53;;;;;;;0.80;0.20;;;12.10;99.90;;;;;;5054457;28;20413;-85
2022/09/14 02:39:45;;;;;;;1.40;0.30;;;12.10;99.90;;;;;;5053504;28;20950;-85
2022/09/14 02:42:51;;;;;;;2.40;0.60;;;12.10;99.90;;;;;;5054232;28;20484;-84
2022/09/14 02:45:51;;;;;;;1.50;0.30;;;12.00;99.90;;;;;;5054692;28;20434;-85
2022/09/14 02:48:28;;;;;;;2.57;0.70;;;12.00;99.90;;;;;;5054599;28;20416;-84
2022/09/14 02:51:17;;;;;;;3.40;0.60;;;11.90;99.90;;;;;;5052946;28;20423;-85
2022/09/14 02:54:31;;;;;;;1.30;0.30;;;11.90;99.90;;;;;;5054460;28;20398;-85
2022/09/14 02:57:02;;;;;;;2.53;0.40;;;11.90;99.90;;;;;;5048557;28;20462;-85
2022/09/14 02:59:28;;;;;;;1.40;0.30;;;12.00;99.90;;;;;;5054187;28;20423;-86
2022/09/14 03:01:54;;;;;;;1.07;0.20;;;12.00;99.90;;;;;;5054145;28;20474;-85
2022/09/14 03:04:20;;;;;;;5.70;0.20;;;11.90;99.90;;;;;;5053021;28;20184;-85
2022/09/14 03:06:45;;;;;;;1.30;0.27;;;11.90;99.90;;;;;;5053874;28;20987;-85
2022/09/14 03:09:11;;;;;;;0.80;0.20;;;12.00;99.90;;;;;;5054084;28;20185;-84
2022/09/14 03:11:36;;;;;;;3.03;1.90;;;11.90;99.90;;;;;;5054162;28;20196;-85
2022/09/14 03:14:02;;;;;;;2.97;0.40;;;12.00;99.90;;;;;;5053786;28;20322;-85
2022/09/14 03:16:27;;;;;;;4.13;0.50;;;12.00;99.90;;;;;;5053947;28;20230;-84
2022/09/14 03:18:53;;;;;;;2.83;0.30;;;12.00;99.90;;;;;;5053869;28;20250;-84
2022/09/14 03:21:18;;;;;;;1.47;0.43;;;12.00;99.90;;;;;;5053434;28;20171;-84
2022/09/14 03:23:46;;;;;;;2.17;0.40;;;12.00;99.90;;;;;;5053887;28;20181;-84
2022/09/14 03:26:20;;;;;;;4.07;0.73;;;11.90;99.90;;;;;;5053872;28;20169;-84
2022/09/14 03:28:50;;;;;;;0.50;0.20;;;11.90;99.90;;;;;;5053844;28;20779;-84
2022/09/14 03:31:15;;;;;;;2.10;0.30;;;11.80;99.90;;;;;;5052585;28;20918;-84
2022/09/14 03:33:41;;;;;;;1.87;0.40;;;11.70;99.90;;;;;;5053674;28;20418;-84
2022/09/14 03:36:11;;;;;;;1.53;0.20;;;11.60;99.90;;;;;;5053444;28;20175;-84
2022/09/14 03:38:36;;;;;;;1.97;0.43;;;11.60;99.90;;;;;;5053560;28;20187;-84
2022/09/14 03:41:07;;;;;;;1.87;0.40;;;11.50;99.90;;;;;;5053575;28;20409;-83
2022/09/14 03:43:33;;;;;;;2.30;0.30;;;11.50;99.90;;;;;;5052256;28;20219;-84
2022/09/14 03:46:13;;;;;;;1.20;0.30;;;11.40;99.90;;;;;;5053548;28;20790;-83
2022/09/14 03:48:39;;;;;;;1.97;0.47;;;11.40;99.90;;;;;;5053566;28;20191;-83
2022/09/14 03:51:07;;;;;;;3.90;0.27;;;11.30;99.90;;;;;;5051851;28;20415;-84
2022/09/14 03:53:33;;;;;;;2.47;0.30;;;11.30;99.90;;;;;;5052745;28;21057;-84
2022/09/14 03:55:58;;;;;;;0.50;0.40;;;11.30;99.90;;;;;;5053341;28;20440;-84
2022/09/14 03:58:25;;;;;;;2.30;0.53;;;11.30;99.90;;;;;;5053319;28;20183;-84
2022/09/14 04:00:51;;;;;;;2.17;0.30;;;11.20;99.90;;;;;;5053316;28;20182;-84
2022/09/14 04:03:17;;;;;;;3.40;0.30;;;11.20;99.90;;;;;;5053177;28;20500;-84
2022/09/14 04:05:44;;;;;;;1.60;0.40;;;11.10;99.90;;;;;;5052895;28;20416;-84
2022/09/14 04:08:10;;;;;;;1.33;0.30;;;11.00;99.90;;;;;;5052156;28;20652;-85
2022/09/14 04:10:37;;;;;;;1.83;1.00;;;10.90;99.90;;;;;;5051856;28;20423;-85
2022/09/14 04:13:04;;;;;;;2.00;0.20;;;10.90;99.90;;;;;;5052810;28;20993;-84
2022/09/14 04:15:29;;;;;;;2.80;0.40;;;10.90;99.90;;;;;;5052970;28;20429;-84
2022/09/14 04:17:58;;;;;;;2.50;0.30;;;10.90;99.90;;;;;;5053027;28;20181;-84
2022/09/14 04:20:23;;;;;;;2.70;0.50;;;10.90;99.90;;;;;;5051437;28;20267;-85
2022/09/14 04:22:49;;;;;;;2.90;0.40;;;10.90;99.90;;;;;;5051537;28;20557;-86
2022/09/14 04:25:14;;;;;;;1.90;0.30;;;11.00;99.90;;;;;;5052636;28;20213;-86
2022/09/14 04:27:40;;;;;;;2.47;0.47;;;10.90;99.90;;;;;;5051164;28;20637;-86
2022/09/14 04:30:05;;;;;;;3.40;0.83;;;10.90;99.90;;;;;;5051606;28;20179;-85
2022/09/14 04:32:31;;;;;;;3.90;0.80;;;10.90;99.90;;;;;;5052455;28;20178;-84
2022/09/14 04:34:56;;;;;;;3.13;0.40;;;11.00;99.90;;;;;;5052846;28;20184;-85
2022/09/14 04:37:22;;;;;;;1.20;0.57;;;11.00;99.90;;;;;;5052307;28;20278;-86
2022/09/14 04:39:48;;;;;;;2.67;0.37;;;11.00;99.90;;;;;;5051647;28;20183;-86
2022/09/14 04:42:13;;;;;;;1.13;0.37;;;11.20;99.90;;;;;;5052590;28;20295;-86
2022/09/14 04:44:39;;;;;;;2.40;0.53;;;11.20;99.90;;;;;;5052642;28;20175;-86
2022/09/14 04:47:04;;;;;;;2.00;0.70;;;11.30;99.90;;;;;;5052810;28;20178;-86
2022/09/14 04:49:30;;;;;;;3.03;0.67;;;11.30;99.90;;;;;;5052677;28;20639;-85
2022/09/14 04:51:55;;;;;;;1.07;0.30;;;11.30;99.90;;;;;;5052303;28;20171;-84
2022/09/14 04:54:21;;;;;;;2.47;0.60;;;11.50;99.90;;;;;;5051418;28;20241;-86
2022/09/14 04:56:49;;;;;;;2.43;0.97;;;11.50;99.90;;;;;;5052491;28;20180;-85
2022/09/14 04:59:15;;;;;;;3.80;0.50;;;11.70;99.90;;;;;;5052581;28;20173;-85
2022/09/14 05:01:43;;;;;;;3.03;0.50;;;11.70;99.90;;;;;;5052466;28;20974;-85
2022/09/14 05:04:10;;;;;;;2.53;0.83;;;11.70;99.90;;;;;;5052573;28;20182;-84
2022/09/14 05:06:39;;;;;;;2.93;1.17;;;11.80;99.90;;;;;;5056504;28;20404;-84
2022/09/14 05:09:12;;;;;;;3.93;0.60;;;11.80;99.90;;;;;;5056422;28;20431;-84
2022/09/14 05:11:38;;;;;;;2.90;0.50;;;11.80;99.90;;;;;;5055121;28;20422;-85
2022/09/14 05:14:03;;;;;;;1.13;0.30;;;11.90;99.90;;;;;;5056139;28;20512;-84
2022/09/14 05:16:34;;;;;;;5.33;1.17;;;12.00;99.90;;;;;;5056376;28;20177;-83
2022/09/14 05:19:02;;;;;;;2.50;0.67;;;12.00;99.90;;;;;;5056329;28;20216;-84
2022/09/14 05:21:31;;;;;;;1.40;0.70;;;12.10;99.90;;;;;;5055448;28;20416;-85
2022/09/14 05:23:59;;;;;;;1.60;0.37;;;12.10;99.90;;;;;;5054840;28;20985;-85
2022/09/14 05:26:26;;;;;;;1.77;0.57;;;12.20;99.90;;;;;;5056057;28;20445;-84
2022/09/14 05:28:54;;;;;;;5.47;0.43;;;12.20;99.90;;;;;;5055900;28;20483;-85
2022/09/14 05:31:21;;;;;;;3.13;1.00;;;12.20;99.90;;;;;;5055826;28;20408;-85
2022/09/14 05:33:47;;;;;;;1.43;0.53;;;12.20;99.90;;;;;;5054772;28;20573;-84
2022/09/14 05:36:13;;;;;;;4.90;1.10;;;12.30;99.90;;;;;;5054208;28;20876;-84
2022/09/14 05:38:39;;;;;;;5.07;0.77;;;12.30;99.90;;;;;;5053896;28;20181;-85
2022/09/14 05:41:06;;;;;;;1.20;0.30;;;12.40;99.90;;;;;;5053854;28;20532;-84
2022/09/14 05:43:33;;;;;;;3.47;0.60;;;12.40;99.90;;;;;;5055634;28;20478;-84
2022/09/14 05:46:10;;;;;;;3.47;0.70;;;12.50;99.90;;;;;;5055732;28;20480;-84
2022/09/14 05:48:37;;;;;;;3.53;0.80;;;12.50;99.90;;;;;;5055670;28;20927;-84
2022/09/14 05:51:06;;;;;;;1.63;0.80;;;12.40;99.90;;;;;;5054058;28;20415;-85
2022/09/14 05:53:32;;;;;;;1.10;0.40;;;12.60;99.90;;;;;;5055592;28;20419;-85
2022/09/14 05:56:03;;;;;;;1.97;0.87;;;12.70;99.90;;;;;;5055545;28;20509;-85
2022/09/14 05:58:29;;;;;;;2.80;0.37;;;12.70;99.90;;;;;;5055455;28;20408;-84
2022/09/14 06:00:55;;;;;;;4.20;0.80;;;12.80;99.90;;;;;;5055379;28;20816;-85
2022/09/14 06:03:21;;;;;;;1.73;0.70;;;12.90;99.90;;;;;;5055196;28;20480;-84
2022/09/14 06:05:49;;;;;;;2.83;0.77;;;12.90;99.90;;;;;;5053735;28;20640;-84
2022/09/14 06:08:15;;;;;;;1.83;0.73;;;13.00;99.90;;;;;;5055521;28;20168;-84
2022/09/14 06:10:40;;;;;;;2.40;0.50;;;13.00;99.90;;;;;;5055632;28;21010;-83
2022/09/14 06:13:06;;;;;;;1.40;0.67;;;13.00;99.90;;;;;;5054739;28;20225;-84
2022/09/14 06:15:33;;;;;;;1.00;0.50;;;13.10;99.90;;;;;;5055280;28;20173;-83
2022/09/14 06:18:01;;;;;;;2.83;0.70;;;13.10;99.90;;;;;;5054583;28;20167;-83
2022/09/14 06:20:27;;;;;;;3.27;0.90;;;13.10;99.90;;;;;;5053432;28;20996;-83
2022/09/14 06:22:52;;;;;;;4.43;0.90;;;13.30;99.90;;;;;;5053754;28;20551;-83
2022/09/14 06:25:18;;;;;;;1.57;0.63;;;13.30;99.90;;;;;;5053812;28;20163;-84
2022/09/14 06:27:43;;;;;;;2.30;0.93;;;13.40;99.90;;;;;;5055080;28;20170;-83
2022/09/14 06:30:09;;;;;;;1.07;0.73;;;13.40;99.90;;;;;;5055053;28;20163;-83
2022/09/14 06:32:38;;;;;;;3.43;0.43;;;13.50;99.90;;;;;;5054750;28;20170;-84
2022/09/14 06:35:07;;;;;;;4.60;0.90;;;13.50;99.90;;;;;;5053195;28;20420;-83
2022/09/14 06:37:32;;;;;;;2.27;0.80;;;13.40;99.90;;;;;;5054780;28;20419;-83
2022/09/14 06:39:58;;;;;;;1.70;0.83;;;13.50;99.90;;;;;;5053492;28;20443;-83
2022/09/14 06:42:23;;;;;;;2.63;0.93;;;13.60;99.90;;;;;;5053382;28;20264;-83
2022/09/14 06:44:48;;;;;;;2.87;0.50;;;13.60;99.90;;;;;;5054582;28;20229;-84
2022/09/14 06:47:14;;;;;;;2.40;0.63;;;13.60;99.90;;;;;;5054657;28;20170;-83
2022/09/14 06:49:45;;;;;;;0.70;0.43;;;13.80;99.90;;;;;;5054173;28;20601;-83
2022/09/14 06:52:10;;;;;;;1.73;0.30;;;13.90;99.90;;;;;;5054584;28;20203;-83
2022/09/14 06:54:36;;;;;;;2.87;0.43;;;14.10;99.90;;;;;;5054540;28;20408;-84
2022/09/14 06:57:01;;;;;;;2.50;0.77;;;14.20;99.90;;;;;;5054428;28;20241;-83
2022/09/14 06:59:27;;;;;;;2.50;0.80;;;14.30;99.90;;;;;;5054280;28;20546;-83
2022/09/14 07:01:52;;;;;;;4.67;0.70;;;14.40;99.90;;;;;;5054308;28;20231;-83
2022/09/14 07:04:18;;;;;;;2.83;0.47;;;14.50;99.90;;;;;;5053135;28;20177;-83
2022/09/14 07:06:48;;;;;;;6.30;0.50;;;14.70;99.90;;;;;;5053972;28;20172;-83
2022/09/14 07:09:15;;;;;;;2.90;0.57;;;14.80;99.90;;;;;;5054330;28;20172;-83
2022/09/14 07:11:50;;;;;;;1.17;0.40;;;15.00;99.90;;;;;;5054030;28;20418;-83
2022/09/14 07:14:15;;;;;;;2.43;0.40;;;15.10;99.90;;;;;;5053982;28;20464;-84
2022/09/14 07:16:41;;;;;;;2.83;0.50;;;15.10;99.90;;;;;;5054080;28;20440;-84
2022/09/14 07:19:11;;;;;;;2.57;0.77;;;15.20;99.90;;;;;;5054059;28;20557;-84
2022/09/14 07:21:37;;;;;;;3.23;0.63;;;15.50;99.90;;;;;;5053537;28;20173;-84
2022/09/14 07:24:03;;;;;;;2.97;0.83;;;15.70;99.90;;;;;;5052588;28;20430;-83
2022/09/14 07:26:31;;;;;;;1.63;0.20;;;16.30;99.90;;;;;;5052630;28;20649;-84
2022/09/14 07:28:59;;;;;;;1.57;0.40;;;17.00;99.90;;;;;;5052929;28;20532;-84
2022/09/14 07:31:40;;;;;;;1.60;0.30;;;16.90;99.90;;;;;;5053723;28;20441;-84
2022/09/14 07:34:06;;;;;;;2.87;0.53;;;16.70;99.90;;;;;;5053783;28;20499;-84
2022/09/14 07:36:37;;;;;;;5.07;0.60;;;16.70;99.90;;;;;;5053307;28;20416;-83
2022/09/14 07:39:07;;;;;;;1.77;0.30;;;17.00;99.90;;;;;;5053690;28;20407;-83
2022/09/14 07:41:33;;;;;;;2.83;0.20;;;17.00;99.90;;;;;;5053509;28;20496;-83
2022/09/14 07:44:02;;;;;;;4.50;0.60;;;17.00;99.90;;;;;;5053687;28;20496;-84
2022/09/14 07:46:31;;;;;;;2.47;0.60;;;16.90;99.90;;;;;;5053498;28;20423;-84
2022/09/14 07:48:59;;;;;;;3.50;0.40;;;16.80;99.90;;;;;;5053550;28;20414;-84
2022/09/14 07:51:26;;;;;;;2.80;0.50;;;16.90;99.90;;;;;;5053047;28;20415;-84
2022/09/14 07:54:01;;;;;;;1.93;0.50;;;17.10;99.90;;;;;;5053405;28;20417;-84
2022/09/14 07:56:28;;;;;;;1.07;0.40;;;17.20;99.90;;;;;;5053382;28;20412;-84
2022/09/14 07:58:55;;;;;;;1.60;0.20;;;17.30;99.90;;;;;;5053312;28;20423;-84
2022/09/14 08:01:22;;;;;;;2.03;0.20;;;17.30;56.80;;;;;;5053135;28;20415;-84
2022/09/14 08:03:48;;;;;;;6.60;0.73;;;17.30;99.90;;;;;;5053153;28;20431;-84
2022/09/14 08:06:16;;;;;;;3.23;0.50;;;17.30;99.90;;;;;;5052834;28;20416;-84
2022/09/14 08:08:47;;;;;;;1.13;0.37;;;17.50;99.90;;;;;;5053069;28;20825;-84
2022/09/14 08:11:24;;;;;;;2.20;0.30;;;17.80;99.90;;;;;;5053093;28;20447;-83
2022/09/14 08:13:58;;;;;;;2.43;0.27;;;18.20;1.00;;;;;;5051600;28;20523;-84
2022/09/14 08:16:25;;;;;;;1.27;0.20;;;18.90;1.00;;;;;;5052026;28;20749;-84
2022/09/14 08:19:15;;;;;;;2.70;0.20;;;20.50;1.00;;;;;;5053081;28;20418;-82
2022/09/14 08:21:41;;;;;;;3.00;0.37;;;20.90;99.90;;;;;;5052573;28;20494;-82
2022/09/14 08:24:06;;;;;;;2.10;0.20;;;20.80;1.00;;;;;;5052856;28;20416;-84
2022/09/14 08:26:35;;;;;;;3.00;0.23;;;21.00;99.90;;;;;;5052772;28;20173;-84
2022/09/14 08:29:03;;;;;;;1.37;0.30;;;22.60;1.00;;;;;;5052881;28;20166;-85
2022/09/14 08:31:29;;;;;;;3.67;0.30;;;23.10;99.90;;;;;;5052737;28;20408;-84
2022/09/14 08:34:04;;;;;;;1.50;0.27;;;23.30;99.90;;;;;;5052837;28;20428;-84
2022/09/14 08:36:35;;;;;;;4.30;0.20;;;24.20;99.90;;;;;;5052410;28;20649;-85
2022/09/14 08:39:01;;;;;;;3.33;0.20;;;24.40;99.90;;;;;;5052566;28;20753;-84
2022/09/14 08:41:31;;;;;;;2.20;0.30;;;24.20;99.90;;;;;;5056462;28;20462;-84
2022/09/14 08:44:09;;;;;;;2.87;0.67;;;24.90;99.90;;;;;;5055682;28;20170;-85
2022/09/14 08:46:43;;;;;;;2.00;0.30;;;23.00;99.90;;;;;;5056915;28;20839;-84
2022/09/14 08:49:46;;;;;;;1.43;0.33;;;22.20;99.90;;;;;;5053224;28;20429;-86
2022/09/14 08:52:19;;;;;;;2.67;0.30;;;20.70;1.00;;;;;;5035861;28;20765;-86
2022/09/14 08:54:46;;;;;;;1.87;0.50;;;21.50;1.00;;;;;;5049601;28;20423;-86
2022/09/14 08:57:24;;;;;;;2.60;0.20;;;23.40;99.90;;;;;;5054529;28;20412;-86
2022/09/14 08:59:59;;;;;;;2.83;0.27;;;22.00;99.90;;;;;;5055603;28;20407;-84
2022/09/14 09:02:51;;;;;;;1.00;0.33;;;23.60;99.90;;;;;;5046382;28;20498;-85
2022/09/14 09:05:41;;;;;;;1.67;0.30;;;22.30;99.90;;;;;;5018865;28;20431;-84
2022/09/14 09:08:32;;;;;;;1.97;0.20;;;24.60;99.90;;;;;;5036271;28;20413;-84
2022/09/14 09:11:00;;;;;;;1.80;0.20;;;23.40;99.90;;;;;;5036183;28;20401;-84
2022/09/14 09:13:30;;;;;;;1.93;0.43;;;21.30;99.90;;;;;;5044179;28;20540;-81
2022/09/14 09:16:04;;;;;;;3.37;0.20;;;20.60;99.90;;;;;;5048951;28;20408;-85
2022/09/14 09:18:46;;;;;;;2.27;0.50;;;20.60;99.90;;;;;;5038445;28;20988;-85
2022/09/14 09:21:18;;;;;;;2.73;0.30;;;20.90;99.90;;;;;;5035945;28;20834;-81
2022/09/14 09:23:44;;;;;;;1.13;0.23;;;21.70;99.90;;;;;;5036161;28;20476;-82
2022/09/14 09:26:31;;;;;;;3.83;0.63;;;22.00;99.90;;;;;;5036188;28;20475;-81
2022/09/14 09:29:00;;;;;;;1.97;0.30;;;22.80;99.90;;;;;;5036193;28;20405;-82
2022/09/14 09:31:37;;;;;;;1.90;0.27;;;23.90;99.90;;;;;;5036129;28;20405;-83
2022/09/14 09:34:02;;;;;;;1.80;0.30;;;23.60;95.40;;;;;;5036138;28;20523;-83
2022/09/14 09:36:33;;;;;;;1.30;0.23;;;24.00;83.30;;;;;;5035821;28;20976;-79
2022/09/14 09:38:59;;;;;;;2.53;0.33;;;23.90;81.90;;;;;;5036009;28;20540;-80
2022/09/14 09:41:30;;;;;;;2.17;0.30;;;24.10;82.70;;;;;;5035837;28;20412;-80
2022/09/14 09:44:02;;;;;;;1.50;0.60;;;24.60;72.00;;;;;;5035962;28;20689;-80
2022/09/14 09:46:31;;;;;;;2.10;0.20;;;24.50;72.30;;;;;;5035846;28;20412;-81
2022/09/14 09:48:58;;;;;;;1.37;0.27;;;24.50;57.50;;;;;;5035702;28;20425;-78
2022/09/14 09:51:23;;;;;;;3.20;0.30;;;23.70;72.90;;;;;;5034184;28;20409;-81
2022/09/14 09:54:06;;;;;;;1.47;0.30;;;22.80;90.80;;;;;;5035707;28;20495;-81
2022/09/14 09:56:37;;;;;;;5.10;0.70;;;22.10;97.30;;;;;;5035566;28;20546;-80
2022/09/14 09:59:40;;;;;;;2.00;0.30;;;21.70;99.90;;;;;;5035661;28;20939;-81
2022/09/14 10:02:29;;;;;;;2.73;0.27;;;21.30;99.90;;;;;;5035520;28;20467;-83
2022/09/14 10:05:16;;;;;;;1.90;0.77;;;21.00;99.90;;;;;;5035215;28;20773;-83
2022/09/14 10:07:54;;;;;;;0.77;0.37;;;20.90;99.90;;;;;;5035232;28;20397;-83
2022/09/14 10:10:25;;;;;;;3.23;0.30;;;20.70;99.90;;;;;;5035299;28;20905;-83
2022/09/14 10:12:54;;;;;;;1.10;0.30;;;20.60;99.90;;;;;;5035197;28;20457;-83
2022/09/14 10:15:27;;;;;;;1.50;0.30;;;20.80;99.90;;;;;;5035301;28;20416;-82
2022/09/14 10:18:12;;;;;;;1.20;0.30;;;22.30;97.20;;;;;;5035282;28;20508;-83
2022/09/14 10:20:44;;;;;;;3.27;0.20;;;23.30;98.80;;;;;;5035030;28;20455;-83
2022/09/14 10:23:19;;;;;;;4.40;0.73;;;23.00;57.10;;;;;;5035083;28;20960;-83
2022/09/14 10:25:45;;;;;;;1.73;0.20;;;23.60;95.00;;;;;;5035097;28;20504;-83
2022/09/14 10:28:30;;;;;;;0.90;0.20;;;24.10;52.60;;;;;;5034923;28;20439;-83
2022/09/14 10:31:21;;;;;;;2.80;0.43;;;23.90;46.60;;;;;;5034892;28;20463;-84
2022/09/14 10:33:53;;;;;;;1.80;0.30;;;23.60;98.30;;;;;;5034599;28;20429;-80
2022/09/14 10:36:32;;;;;;;4.03;0.30;;;23.30;62.40;;;;;;5034566;28;20509;-83
2022/09/14 10:39:24;;;;;;;0.70;0.20;;;22.90;79.70;;;;;;5034905;28;20520;-83
2022/09/14 10:41:56;;;;;;;2.10;0.30;;;22.40;85.10;;;;;;5034725;28;20547;-83
2022/09/14 10:44:51;;;;;;;2.70;0.20;;;22.20;82.40;;;;;;5034767;28;20492;-82
2022/09/14 10:47:47;;;;;;;1.30;0.30;;;21.70;53.40;;;;;;5034723;28;20409;-82
2022/09/14 10:50:54;;;;;;;1.07;0.20;;;21.00;99.90;;;;;;5034268;28;20424;-83
2022/09/14 10:53:51;;;;;;;2.60;0.20;;;20.50;99.90;;;;;;5034607;28;20411;-82
2022/09/14 10:56:37;;;;;;;1.70;0.40;;;20.20;99.90;;;;;;5033347;28;20512;-83
2022/09/14 10:59:30;;;;;;;1.70;0.27;;;19.80;99.90;;;;;;5034488;28;20507;-80
2022/09/14 11:02:12;;;;;;;2.60;0.47;;;19.60;1.00;;;;;;5034364;28;20454;-81
2022/09/14 11:04:56;;;;;;;1.10;0.33;;;19.50;1.00;;;;;;5033986;28;20899;-82
2022/09/14 11:07:30;;;;;;;1.70;0.20;;;19.80;1.00;;;;;;5034349;28;20408;-82
2022/09/14 11:10:17;;;;;;;2.70;0.30;;;19.80;1.00;;;;;;5034243;28;20404;-82
2022/09/14 11:13:26;;;;;;;2.33;0.37;;;19.60;1.00;;;;;;5034050;28;20538;-82
2022/09/14 11:16:09;;;;;;;2.80;0.20;;;19.40;1.00;;;;;;5034156;28;20443;-83
2022/09/14 11:19:02;;;;;;;2.20;0.27;;;19.20;99.90;;;;;;5032831;28;20958;-82
2022/09/14 11:21:33;;;;;;;1.97;0.50;;;19.20;99.90;;;;;;5033987;28;20416;-82
2022/09/14 11:24:20;;;;;;;2.67;0.30;;;19.30;99.90;;;;;;5034096;28;20432;-82
2022/09/14 11:27:03;;;;;;;2.10;0.30;;;19.40;1.00;;;;;;5033975;28;20408;-82
2022/09/14 11:29:31;;;;;;;4.63;0.40;;;19.50;99.90;;;;;;5033992;28;20441;-82
2022/09/14 11:32:18;;;;;;;1.47;0.33;;;19.50;1.00;;;;;;5033944;28;20419;-82
2022/09/14 11:34:54;;;;;;;1.80;0.20;;;19.70;99.90;;;;;;5033583;28;20414;-82
2022/09/14 11:37:29;;;;;;;1.90;0.40;;;20.60;99.90;;;;;;5033887;28;20467;-82
2022/09/14 11:39:59;;;;;;;2.40;0.30;;;21.50;99.90;;;;;;5033802;28;20409;-83
2022/09/14 11:42:38;;;;;;;1.80;0.40;;;21.20;99.90;;;;;;5032355;28;20473;-82
2022/09/14 11:45:19;;;;;;;2.73;0.30;;;20.60;99.90;;;;;;5033697;28;20412;-81
2022/09/14 11:48:12;;;;;;;1.17;0.20;;;20.30;99.90;;;;;;5033636;28;20511;-82
2022/09/14 11:50:41;;;;;;;0.93;0.20;;;20.00;99.90;;;;;;5029984;28;20952;-82
2022/09/14 11:53:11;;;;;;;3.07;0.30;;;19.90;99.90;;;;;;5033539;28;20415;-82
2022/09/14 11:55:40;;;;;;;2.50;0.20;;;19.90;99.90;;;;;;5033541;28;20408;-82
2022/09/14 11:58:11;;;;;;;1.07;0.30;;;19.70;99.90;;;;;;5033439;28;20418;-82
2022/09/14 12:00:44;;;;;;;1.80;0.50;;;19.40;1.00;;;;;;5033366;28;20420;-82
2022/09/14 12:03:21;;;;;;;1.83;0.40;;;19.20;99.90;;;;;;5031787;28;20469;-81
2022/09/14 12:05:48;;;;;;;2.80;0.20;;;19.00;1.00;;;;;;5032992;28;21147;-81
2022/09/14 12:08:32;;;;;;;1.17;0.20;;;18.80;1.00;;;;;;5033241;28;20423;-82
2022/09/14 12:11:21;;;;;;;3.90;0.33;;;18.80;99.90;;;;;;5031969;28;20938;-82
2022/09/14 12:13:47;;;;;;;1.67;0.50;;;18.60;1.00;;;;;;5032929;28;20458;-82
2022/09/14 12:16:13;;;;;;;1.13;0.33;;;18.50;1.00;;;;;;5031424;28;20439;-82
2022/09/14 12:18:41;;;;;;;1.07;0.20;;;18.50;99.90;;;;;;5033052;28;20174;-82
2022/09/14 12:21:23;;;;;;;1.10;0.20;;;18.50;99.90;;;;;;5032953;28;20171;-81
2022/09/14 12:23:55;;;;;;;0.80;0.20;;;18.50;1.00;;;;;;5031663;28;20468;-82
2022/09/14 12:26:31;;;;;;;0.40;0.20;;;18.50;99.90;;;;;;5033089;28;20464;-81
2022/09/14 12:29:04;;;;;;;1.03;0.20;;;18.40;1.00;;;;;;5033022;28;20428;-81
2022/09/14 12:31:48;;;;;;;2.73;0.40;;;18.30;99.90;;;;;;5032978;28;20451;-82
2022/09/14 12:34:22;;;;;;;4.70;2.10;;;18.10;1.00;;;;;;5032527;28;20425;-82
2022/09/14 12:36:47;;;;;;;2.37;0.20;;;18.20;99.90;;;;;;5033062;28;20764;-81
2022/09/14 12:39:26;;;;;;;2.50;0.40;;;18.20;60.70;;;;;;5032948;28;20408;-82
2022/09/14 12:41:51;;;;;;;1.30;0.50;;;18.40;1.00;;;;;;5033101;28;20206;-82
2022/09/14 12:44:37;;;;;;;2.60;0.20;;;18.40;1.00;;;;;;5032510;28;20421;-79
2022/09/14 12:47:36;;;;;;;1.00;0.20;;;18.30;1.00;;;;;;5031190;28;20519;-81
2022/09/14 12:50:13;;;;;;;2.40;0.40;;;18.30;19.20;;;;;;5047875;28;20916;-81
2022/09/14 12:53:05;;;;;;;4.40;0.30;;;18.40;99.90;;;;;;5052276;28;20417;-81
2022/09/14 12:55:44;;;;;;;3.23;0.50;;;18.60;1.00;;;;;;5052241;28;20451;-80
2022/09/14 12:58:23;;;;;;;1.70;0.40;;;19.00;96.90;;;;;;5052195;28;20474;-80
2022/09/14 13:01:34;;;;;;;0.80;0.20;;;19.40;1.00;;;;;;5051850;28;20417;-83
2022/09/14 13:04:02;;;;;;;4.03;0.53;;;19.60;1.00;;;;;;5051412;28;20470;-79
2022/09/14 13:06:48;;;;;;;3.60;0.90;;;19.80;1.00;;;;;;5052049;28;20398;-80
2022/09/14 13:09:29;;;;;;;2.67;0.30;;;19.90;1.00;;;;;;5051248;28;20430;-80
2022/09/14 13:12:09;;;;;;;2.40;0.20;;;20.20;99.90;;;;;;5052124;28;20435;-80
2022/09/14 13:14:51;;;;;;;2.57;0.60;;;20.10;99.90;;;;;;5052248;28;20439;-81
2022/09/14 13:17:18;;;;;;;3.77;0.50;;;20.10;1.00;;;;;;5052344;28;20411;-80